sensor_id;sensor_type;location;lat;lon;timestamp;pressure;altitude;pressure_sealevel;temperature;humidity
1726;BME280;41776;48.260;8.928;2023-04-19T00:00:58;52537.47;;;-145.69;100.00
1726;BME280;41776;48.260;8.928;2023-04-19T00:03:27;52549.34;;;-145.69;100.00
1726;BME280;41776;48.260;8.928;2023-04-19T00:05:54;52541.44;;;-145.69;100.00
1726;BME280;41776;48.260;8.928;2023-04-19T00:08:23;52517.66;;;-145.69;100.00
1726;BME280;41776;48.260;8.928;2023-04-19T00:10:49;52531.53;;;-145.69;100.00
1726;BME280;41776;48.260;8.928;2023-04-19T00:13:16;52505.78;;;-145.69;100.00
1726;BME280;41776;48.260;8.928;2023-04-19T00:15:42;52539.44;;;-145.69;100.00
1726;BME280;41776;48.260;8.928;2023-04-19T00:18:09;52507.75;;;-145.69;100.00
1726;BME280;41776;48.260;8.928;2023-04-19T00:20:37;52527.56;;;-145.69;100.00
1726;BME280;41776;48.260;8.928;2023-04-19T00:23:03;52515.69;;;-145.69;100.00
1726;BME280;41776;48.260;8.928;2023-04-19T00:25:30;52519.63;;;-145.69;100.00
1726;BME280;41776;48.260;8.928;2023-04-19T00:27:58;52527.56;;;-145.69;100.00
1726;BME280;41776;48.260;8.928;2023-04-19T00:30:25;52527.56;;;-145.69;100.00
1726;BME280;41776;48.260;8.928;2023-04-19T00:32:51;52511.72;;;-145.69;100.00
1726;BME280;41776;48.260;8.928;2023-04-19T00:35:18;52484.00;;;-145.69;100.00
1726;BME280;41776;48.260;8.928;2023-04-19T00:37:46;52543.41;;;-145.69;100.00
1726;BME280;41776;48.260;8.928;2023-04-19T00:40:12;52497.84;;;-145.69;100.00
1726;BME280;41776;48.260;8.928;2023-04-19T00:42:39;52537.47;;;-145.69;100.00
1726;BME280;41776;48.260;8.928;2023-04-19T00:45:06;52523.59;;;-145.69;100.00
1726;BME280;41776;48.260;8.928;2023-04-19T00:47:33;52531.53;;;-145.69;100.00
1726;BME280;41776;48.260;8.928;2023-04-19T00:50:00;52527.56;;;-145.69;100.00
1726;BME280;41776;48.260;8.928;2023-04-19T00:52:27;52535.47;;;-145.69;100.00
1726;BME280;41776;48.260;8.928;2023-04-19T00:54:56;52519.63;;;-145.69;100.00
1726;BME280;41776;48.260;8.928;2023-04-19T00:57:24;52499.84;;;-145.69;100.00
1726;BME280;41776;48.260;8.928;2023-04-19T00:59:50;52521.63;;;-145.69;100.00
1726;BME280;41776;48.260;8.928;2023-04-19T01:02:17;52507.75;;;-145.69;100.00
1726;BME280;41776;48.260;8.928;2023-04-19T01:04:46;52513.69;;;-145.69;100.00
1726;BME280;41776;48.260;8.928;2023-04-19T01:07:12;52535.47;;;-145.69;100.00
1726;BME280;41776;48.260;8.928;2023-04-19T01:09:39;52531.53;;;-145.69;100.00
1726;BME280;41776;48.260;8.928;2023-04-19T01:12:07;52535.47;;;-145.69;100.00
1726;BME280;41776;48.260;8.928;2023-04-19T01:14:34;52529.53;;;-145.69;100.00
1726;BME280;41776;48.260;8.928;2023-04-19T01:17:00;52484.00;;;-145.69;100.00
1726;BME280;41776;48.260;8.928;2023-04-19T01:19:27;52515.69;;;-145.69;100.00
1726;BME280;41776;48.260;8.928;2023-04-19T01:21:53;52543.41;;;-145.69;100.00
1726;BME280;41776;48.260;8.928;2023-04-19T01:24:23;52543.41;;;-145.69;100.00
1726;BME280;41776;48.260;8.928;2023-04-19T01:26:50;52527.56;;;-145.69;100.00
1726;BME280;41776;48.260;8.928;2023-04-19T01:29:16;52543.41;;;-145.69;100.00
1726;BME280;41776;48.260;8.928;2023-04-19T01:31:45;52539.44;;;-145.69;100.00
1726;BME280;41776;48.260;8.928;2023-04-19T01:34:15;52489.94;;;-145.69;100.00
1726;BME280;41776;48.260;8.928;2023-04-19T01:36:42;52519.63;;;-145.69;100.00
1726;BME280;41776;48.260;8.928;2023-04-19T01:39:08;52527.56;;;-145.69;100.00
1726;BME280;41776;48.260;8.928;2023-04-19T01:41:37;52511.72;;;-145.69;100.00
1726;BME280;41776;48.260;8.928;2023-04-19T01:44:03;52571.13;;;-145.69;100.00
1726;BME280;41776;48.260;8.928;2023-04-19T01:46:30;52517.66;;;-145.69;100.00
1726;BME280;41776;48.260;8.928;2023-04-19T01:48:56;52553.31;;;-145.69;100.00
1726;BME280;41776;48.260;8.928;2023-04-19T01:51:23;52523.59;;;-145.69;100.00
1726;BME280;41776;48.260;8.928;2023-04-19T01:53:50;52521.63;;;-145.69;100.00
1726;BME280;41776;48.260;8.928;2023-04-19T01:56:18;52539.44;;;-145.69;100.00
1726;BME280;41776;48.260;8.928;2023-04-19T01:58:45;52515.69;;;-145.69;100.00
1726;BME280;41776;48.260;8.928;2023-04-19T02:01:12;52499.84;;;-145.69;100.00
1726;BME280;41776;48.260;8.928;2023-04-19T02:03:38;52499.84;;;-145.69;100.00
1726;BME280;41776;48.260;8.928;2023-04-19T02:06:09;52535.47;;;-145.69;100.00
1726;BME280;41776;48.260;8.928;2023-04-19T02:08:36;52543.41;;;-145.69;100.00
1726;BME280;41776;48.260;8.928;2023-04-19T02:11:05;52543.41;;;-145.69;100.00
1726;BME280;41776;48.260;8.928;2023-04-19T02:13:31;52545.38;;;-145.69;100.00
1726;BME280;41776;48.260;8.928;2023-04-19T02:15:59;52549.34;;;-145.69;100.00
1726;BME280;41776;48.260;8.928;2023-04-19T02:18:26;52521.63;;;-145.69;100.00
1726;BME280;41776;48.260;8.928;2023-04-19T02:20:53;52545.38;;;-145.69;100.00
1726;BME280;41776;48.260;8.928;2023-04-19T02:23:20;52527.56;;;-145.69;100.00
1726;BME280;41776;48.260;8.928;2023-04-19T02:25:46;52519.63;;;-145.69;100.00
1726;BME280;41776;48.260;8.928;2023-04-19T02:28:13;52519.63;;;-145.69;100.00
1726;BME280;41776;48.260;8.928;2023-04-19T02:30:39;52503.81;;;-145.69;100.00
1726;BME280;41776;48.260;8.928;2023-04-19T02:33:07;52545.38;;;-145.69;100.00
1726;BME280;41776;48.260;8.928;2023-04-19T02:35:34;52513.69;;;-145.69;100.00
1726;BME280;41776;48.260;8.928;2023-04-19T02:38:01;52495.88;;;-145.69;100.00
1726;BME280;41776;48.260;8.928;2023-04-19T02:40:28;52551.31;;;-145.69;100.00
1726;BME280;41776;48.260;8.928;2023-04-19T02:42:55;52527.56;;;-145.69;100.00
1726;BME280;41776;48.260;8.928;2023-04-19T02:45:21;52545.38;;;-145.69;100.00
1726;BME280;41776;48.260;8.928;2023-04-19T02:47:48;52573.13;;;-145.69;100.00
1726;BME280;41776;48.260;8.928;2023-04-19T02:50:16;52511.72;;;-145.69;100.00
1726;BME280;41776;48.260;8.928;2023-04-19T02:52:42;52539.44;;;-145.69;100.00
1726;BME280;41776;48.260;8.928;2023-04-19T02:55:09;52543.41;;;-145.69;100.00
1726;BME280;41776;48.260;8.928;2023-04-19T02:57:35;52569.16;;;-145.69;100.00
1726;BME280;41776;48.260;8.928;2023-04-19T03:00:02;52543.41;;;-145.69;100.00
1726;BME280;41776;48.260;8.928;2023-04-19T03:02:29;52563.22;;;-145.69;100.00
1726;BME280;41776;48.260;8.928;2023-04-19T03:04:56;52559.25;;;-145.69;100.00
1726;BME280;41776;48.260;8.928;2023-04-19T03:07:24;52543.41;;;-145.69;100.00
1726;BME280;41776;48.260;8.928;2023-04-19T03:09:51;52537.47;;;-145.69;100.00
1726;BME280;41776;48.260;8.928;2023-04-19T03:12:17;52571.13;;;-145.69;100.00
1726;BME280;41776;48.260;8.928;2023-04-19T03:14:44;52527.56;;;-145.69;100.00
1726;BME280;41776;48.260;8.928;2023-04-19T03:17:10;52571.13;;;-145.69;100.00
1726;BME280;41776;48.260;8.928;2023-04-19T03:19:37;52509.75;;;-145.69;100.00
1726;BME280;41776;48.260;8.928;2023-04-19T03:22:03;52521.63;;;-145.69;100.00
1726;BME280;41776;48.260;8.928;2023-04-19T03:24:31;52559.25;;;-145.69;100.00
1726;BME280;41776;48.260;8.928;2023-04-19T03:26:57;52563.22;;;-145.69;100.00
1726;BME280;41776;48.260;8.928;2023-04-19T03:29:25;52537.47;;;-145.69;100.00
1726;BME280;41776;48.260;8.928;2023-04-19T03:31:51;52539.44;;;-145.69;100.00
1726;BME280;41776;48.260;8.928;2023-04-19T03:34:18;52563.22;;;-145.69;100.00
1726;BME280;41776;48.260;8.928;2023-04-19T03:36:44;52547.38;;;-145.69;100.00
1726;BME280;41776;48.260;8.928;2023-04-19T03:39:11;52515.69;;;-145.69;100.00
1726;BME280;41776;48.260;8.928;2023-04-19T03:41:39;52537.47;;;-145.69;100.00
1726;BME280;41776;48.260;8.928;2023-04-19T03:44:06;52523.59;;;-145.69;100.00
1726;BME280;41776;48.260;8.928;2023-04-19T03:46:32;52535.47;;;-145.69;100.00
1726;BME280;41776;48.260;8.928;2023-04-19T03:48:58;52543.41;;;-145.69;100.00
1726;BME280;41776;48.260;8.928;2023-04-19T03:51:25;52507.75;;;-145.69;100.00
1726;BME280;41776;48.260;8.928;2023-04-19T03:53:52;52583.00;;;-145.69;100.00
1726;BME280;41776;48.260;8.928;2023-04-19T03:56:18;52581.03;;;-145.69;100.00
1726;BME280;41776;48.260;8.928;2023-04-19T03:58:46;52547.38;;;-145.69;100.00
1726;BME280;41776;48.260;8.928;2023-04-19T04:01:17;52555.28;;;-145.69;100.00
1726;BME280;41776;48.260;8.928;2023-04-19T04:03:43;52525.59;;;-145.69;100.00
1726;BME280;41776;48.260;8.928;2023-04-19T04:06:10;52525.59;;;-145.69;100.00
1726;BME280;41776;48.260;8.928;2023-04-19T04:08:36;52547.38;;;-145.69;100.00
1726;BME280;41776;48.260;8.928;2023-04-19T04:11:03;52539.44;;;-145.69;100.00
1726;BME280;41776;48.260;8.928;2023-04-19T04:13:29;52557.28;;;-145.69;100.00
1726;BME280;41776;48.260;8.928;2023-04-19T04:15:57;52491.91;;;-145.69;100.00
1726;BME280;41776;48.260;8.928;2023-04-19T04:18:23;52535.47;;;-145.69;100.00
1726;BME280;41776;48.260;8.928;2023-04-19T04:20:51;52579.06;;;-145.69;100.00
1726;BME280;41776;48.260;8.928;2023-04-19T04:23:17;52553.31;;;-145.69;100.00
1726;BME280;41776;48.260;8.928;2023-04-19T04:25:45;52535.47;;;-145.69;100.00
1726;BME280;41776;48.260;8.928;2023-04-19T04:28:12;52515.69;;;-145.69;100.00
1726;BME280;41776;48.260;8.928;2023-04-19T04:30:38;52529.53;;;-145.69;100.00
1726;BME280;41776;48.260;8.928;2023-04-19T04:33:07;52543.41;;;-145.69;100.00
1726;BME280;41776;48.260;8.928;2023-04-19T04:35:36;52567.16;;;-145.69;100.00
1726;BME280;41776;48.260;8.928;2023-04-19T04:38:02;52535.47;;;-145.69;100.00
1726;BME280;41776;48.260;8.928;2023-04-19T04:40:29;52571.13;;;-145.69;100.00
1726;BME280;41776;48.260;8.928;2023-04-19T04:42:56;52559.25;;;-145.69;100.00
1726;BME280;41776;48.260;8.928;2023-04-19T04:45:25;52517.66;;;-145.69;100.00
1726;BME280;41776;48.260;8.928;2023-04-19T04:47:53;52539.44;;;-145.69;100.00
1726;BME280;41776;48.260;8.928;2023-04-19T04:50:21;52515.69;;;-145.69;100.00
1726;BME280;41776;48.260;8.928;2023-04-19T04:52:47;52547.38;;;-145.69;100.00
1726;BME280;41776;48.260;8.928;2023-04-19T04:55:13;52547.38;;;-145.69;100.00
1726;BME280;41776;48.260;8.928;2023-04-19T04:57:40;52539.44;;;-145.69;100.00
1726;BME280;41776;48.260;8.928;2023-04-19T05:00:08;52557.28;;;-145.69;100.00
1726;BME280;41776;48.260;8.928;2023-04-19T05:02:35;52543.41;;;-145.69;100.00
1726;BME280;41776;48.260;8.928;2023-04-19T05:05:01;52551.31;;;-145.69;100.00
1726;BME280;41776;48.260;8.928;2023-04-19T05:07:29;52503.81;;;-145.69;100.00
1726;BME280;41776;48.260;8.928;2023-04-19T05:09:56;52541.44;;;-145.69;100.00
1726;BME280;41776;48.260;8.928;2023-04-19T05:12:22;52557.28;;;-145.69;100.00
1726;BME280;41776;48.260;8.928;2023-04-19T05:14:49;52575.09;;;-145.69;100.00
1726;BME280;41776;48.260;8.928;2023-04-19T05:17:15;52567.16;;;-145.69;100.00
1726;BME280;41776;48.260;8.928;2023-04-19T05:19:42;52555.28;;;-145.69;100.00
1726;BME280;41776;48.260;8.928;2023-04-19T05:22:08;52511.72;;;-145.69;100.00
1726;BME280;41776;48.260;8.928;2023-04-19T05:24:36;52525.59;;;-145.69;100.00
1726;BME280;41776;48.260;8.928;2023-04-19T05:27:03;52537.47;;;-145.69;100.00
1726;BME280;41776;48.260;8.928;2023-04-19T05:29:30;52529.53;;;-145.69;100.00
1726;BME280;41776;48.260;8.928;2023-04-19T05:31:57;52507.75;;;-145.69;100.00
1726;BME280;41776;48.260;8.928;2023-04-19T05:34:23;52537.47;;;-145.69;100.00
1726;BME280;41776;48.260;8.928;2023-04-19T05:36:50;52509.75;;;-145.69;100.00
1726;BME280;41776;48.260;8.928;2023-04-19T05:39:16;52551.31;;;-145.69;100.00
1726;BME280;41776;48.260;8.928;2023-04-19T05:41:44;52519.63;;;-145.69;100.00
1726;BME280;41776;48.260;8.928;2023-04-19T05:44:10;52531.53;;;-145.69;100.00
1726;BME280;41776;48.260;8.928;2023-04-19T05:46:37;52523.59;;;-145.69;100.00
1726;BME280;41776;48.260;8.928;2023-04-19T05:49:03;52521.63;;;-145.69;100.00
1726;BME280;41776;48.260;8.928;2023-04-19T05:51:30;52539.44;;;-145.69;100.00
1726;BME280;41776;48.260;8.928;2023-04-19T05:53:56;52505.78;;;-145.69;100.00
1726;BME280;41776;48.260;8.928;2023-04-19T05:56:22;52507.75;;;-145.69;100.00
1726;BME280;41776;48.260;8.928;2023-04-19T05:58:50;52527.56;;;-145.69;100.00
1726;BME280;41776;48.260;8.928;2023-04-19T06:01:17;52507.75;;;-145.69;100.00
1726;BME280;41776;48.260;8.928;2023-04-19T06:03:43;52503.81;;;-145.69;100.00
1726;BME280;41776;48.260;8.928;2023-04-19T06:06:10;52513.69;;;-145.69;100.00
1726;BME280;41776;48.260;8.928;2023-04-19T06:08:36;52501.81;;;-145.69;100.00
1726;BME280;41776;48.260;8.928;2023-04-19T06:11:03;52499.84;;;-145.69;100.00
1726;BME280;41776;48.260;8.928;2023-04-19T06:13:29;52527.56;;;-145.69;100.00
1726;BME280;41776;48.260;8.928;2023-04-19T06:15:57;52511.72;;;-145.69;100.00
1726;BME280;41776;48.260;8.928;2023-04-19T06:18:23;52553.31;;;-145.69;100.00
1726;BME280;41776;48.260;8.928;2023-04-19T06:20:51;52535.47;;;-145.69;100.00
1726;BME280;41776;48.260;8.928;2023-04-19T06:23:18;52519.63;;;-145.69;100.00
1726;BME280;41776;48.260;8.928;2023-04-19T06:25:45;52541.44;;;-145.69;100.00
1726;BME280;41776;48.260;8.928;2023-04-19T06:28:12;52527.56;;;-145.69;100.00
1726;BME280;41776;48.260;8.928;2023-04-19T06:30:39;52509.75;;;-145.69;100.00
1726;BME280;41776;48.260;8.928;2023-04-19T06:33:07;52553.31;;;-145.69;100.00
1726;BME280;41776;48.260;8.928;2023-04-19T06:35:33;52499.84;;;-145.69;100.00
1726;BME280;41776;48.260;8.928;2023-04-19T06:37:59;52499.84;;;-145.69;100.00
1726;BME280;41776;48.260;8.928;2023-04-19T06:40:26;52519.63;;;-145.69;100.00
1726;BME280;41776;48.260;8.928;2023-04-19T06:42:53;52527.56;;;-145.69;100.00
1726;BME280;41776;48.260;8.928;2023-04-19T06:45:20;52523.59;;;-145.69;100.00
1726;BME280;41776;48.260;8.928;2023-04-19T06:47:46;52525.59;;;-145.69;100.00
1726;BME280;41776;48.260;8.928;2023-04-19T06:50:15;52525.59;;;-145.69;100.00
1726;BME280;41776;48.260;8.928;2023-04-19T06:52:41;52517.66;;;-145.69;100.00
1726;BME280;41776;48.260;8.928;2023-04-19T06:55:08;52531.53;;;-145.69;100.00
1726;BME280;41776;48.260;8.928;2023-04-19T06:57:35;52519.63;;;-145.69;100.00
1726;BME280;41776;48.260;8.928;2023-04-19T07:00:02;52487.97;;;-145.69;100.00
1726;BME280;41776;48.260;8.928;2023-04-19T07:02:28;52559.25;;;-145.69;100.00
1726;BME280;41776;48.260;8.928;2023-04-19T07:04:55;52563.22;;;-145.69;100.00
1726;BME280;41776;48.260;8.928;2023-04-19T07:07:22;52521.63;;;-145.69;100.00
1726;BME280;41776;48.260;8.928;2023-04-19T07:09:49;52531.53;;;-145.69;100.00
1726;BME280;41776;48.260;8.928;2023-04-19T07:12:15;52529.53;;;-145.69;100.00
1726;BME280;41776;48.260;8.928;2023-04-19T07:14:42;52509.75;;;-145.69;100.00
1726;BME280;41776;48.260;8.928;2023-04-19T07:17:08;52523.59;;;-145.69;100.00
1726;BME280;41776;48.260;8.928;2023-04-19T07:19:34;52539.44;;;-145.69;100.00
1726;BME280;41776;48.260;8.928;2023-04-19T07:22:01;52523.59;;;-145.69;100.00
1726;BME280;41776;48.260;8.928;2023-04-19T07:24:29;52495.88;;;-145.69;100.00
1726;BME280;41776;48.260;8.928;2023-04-19T07:26:56;52503.81;;;-145.69;100.00
1726;BME280;41776;48.260;8.928;2023-04-19T07:29:22;52551.31;;;-145.69;100.00
1726;BME280;41776;48.260;8.928;2023-04-19T07:31:49;52509.75;;;-145.69;100.00
1726;BME280;41776;48.260;8.928;2023-04-19T07:34:16;52487.97;;;-145.69;100.00
1726;BME280;41776;48.260;8.928;2023-04-19T07:36:42;52547.38;;;-145.69;100.00
1726;BME280;41776;48.260;8.928;2023-04-19T07:39:09;52503.81;;;-145.69;100.00
1726;BME280;41776;48.260;8.928;2023-04-19T07:41:36;52480.03;;;-145.69;100.00
1726;BME280;41776;48.260;8.928;2023-04-19T07:44:03;52515.69;;;-145.69;100.00
1726;BME280;41776;48.260;8.928;2023-04-19T07:46:29;52507.75;;;-145.69;100.00
1726;BME280;41776;48.260;8.928;2023-04-19T07:48:56;52493.91;;;-145.69;100.00
1726;BME280;41776;48.260;8.928;2023-04-19T07:51:22;52507.75;;;-145.69;100.00
1726;BME280;41776;48.260;8.928;2023-04-19T07:53:49;52491.91;;;-145.69;100.00
1726;BME280;41776;48.260;8.928;2023-04-19T07:56:15;52487.97;;;-145.69;100.00
1726;BME280;41776;48.260;8.928;2023-04-19T07:58:45;52472.13;;;-145.69;100.00
1726;BME280;41776;48.260;8.928;2023-04-19T08:01:11;52491.91;;;-145.69;100.00
1726;BME280;41776;48.260;8.928;2023-04-19T08:03:38;52489.94;;;-145.69;100.00
1726;BME280;41776;48.260;8.928;2023-04-19T08:06:05;52491.91;;;-145.69;100.00
1726;BME280;41776;48.260;8.928;2023-04-19T08:08:32;52480.03;;;-145.69;100.00
1726;BME280;41776;48.260;8.928;2023-04-19T08:10:59;52487.97;;;-145.69;100.00
1726;BME280;41776;48.260;8.928;2023-04-19T08:13:26;52484.00;;;-145.69;100.00
1726;BME280;41776;48.260;8.928;2023-04-19T08:15:54;52474.09;;;-145.69;100.00
1726;BME280;41776;48.260;8.928;2023-04-19T08:18:20;52491.91;;;-145.69;100.00
1726;BME280;41776;48.260;8.928;2023-04-19T08:20:47;52487.97;;;-145.69;100.00
1726;BME280;41776;48.260;8.928;2023-04-19T08:23:13;52509.75;;;-145.69;100.00
1726;BME280;41776;48.260;8.928;2023-04-19T08:25:40;52503.81;;;-145.69;100.00
1726;BME280;41776;48.260;8.928;2023-04-19T08:28:07;52464.19;;;-145.69;100.00
1726;BME280;41776;48.260;8.928;2023-04-19T08:30:33;52484.00;;;-145.69;100.00
1726;BME280;41776;48.260;8.928;2023-04-19T08:33:01;52515.69;;;-145.69;100.00
1726;BME280;41776;48.260;8.928;2023-04-19T08:35:28;52450.31;;;-145.69;100.00
1726;BME280;41776;48.260;8.928;2023-04-19T08:37:54;52458.25;;;-145.69;100.00
1726;BME280;41776;48.260;8.928;2023-04-19T08:40:21;52454.28;;;-145.69;100.00
1726;BME280;41776;48.260;8.928;2023-04-19T08:42:47;52485.97;;;-145.69;100.00
1726;BME280;41776;48.260;8.928;2023-04-19T08:45:15;52495.88;;;-145.69;100.00
1726;BME280;41776;48.260;8.928;2023-04-19T08:47:42;52499.84;;;-145.69;100.00
1726;BME280;41776;48.260;8.928;2023-04-19T08:50:11;52458.25;;;-145.69;100.00
1726;BME280;41776;48.260;8.928;2023-04-19T08:52:37;52450.31;;;-145.69;100.00
1726;BME280;41776;48.260;8.928;2023-04-19T08:55:05;52484.00;;;-145.69;100.00
1726;BME280;41776;48.260;8.928;2023-04-19T08:57:33;52466.16;;;-145.69;100.00
1726;BME280;41776;48.260;8.928;2023-04-19T09:00:01;52478.06;;;-145.69;100.00
1726;BME280;41776;48.260;8.928;2023-04-19T09:02:43;52474.09;;;-145.69;100.00
1726;BME280;41776;48.260;8.928;2023-04-19T09:05:12;52468.16;;;-145.69;100.00
1726;BME280;41776;48.260;8.928;2023-04-19T09:07:38;52408.75;;;-145.69;100.00
1726;BME280;41776;48.260;8.928;2023-04-19T09:10:06;52460.22;;;-145.69;100.00
1726;BME280;41776;48.260;8.928;2023-04-19T09:12:33;52436.47;;;-145.69;100.00
1726;BME280;41776;48.260;8.928;2023-04-19T09:15:01;52462.22;;;-145.69;100.00
1726;BME280;41776;48.260;8.928;2023-04-19T09:17:28;52487.97;;;-145.69;100.00
1726;BME280;41776;48.260;8.928;2023-04-19T09:19:55;52444.38;;;-145.69;100.00
1726;BME280;41776;48.260;8.928;2023-04-19T09:22:25;52480.03;;;-145.69;100.00
1726;BME280;41776;48.260;8.928;2023-04-19T09:24:51;52468.16;;;-145.69;100.00
1726;BME280;41776;48.260;8.928;2023-04-19T09:27:27;52470.13;;;-145.69;100.00
1726;BME280;41776;48.260;8.928;2023-04-19T09:29:54;52464.19;;;-145.69;100.00
1726;BME280;41776;48.260;8.928;2023-04-19T09:32:21;52487.97;;;-145.69;100.00
1726;BME280;41776;48.260;8.928;2023-04-19T09:34:52;52474.09;;;-145.69;100.00
1726;BME280;41776;48.260;8.928;2023-04-19T09:37:19;52460.22;;;-145.69;100.00
1726;BME280;41776;48.260;8.928;2023-04-19T09:39:48;52472.13;;;-145.69;100.00
1726;BME280;41776;48.260;8.928;2023-04-19T09:42:14;52458.25;;;-145.69;100.00
1726;BME280;41776;48.260;8.928;2023-04-19T09:44:54;52472.13;;;-145.69;100.00
1726;BME280;41776;48.260;8.928;2023-04-19T09:47:22;52432.50;;;-145.69;100.00
1726;BME280;41776;48.260;8.928;2023-04-19T09:50:03;52489.94;;;-145.69;100.00
1726;BME280;41776;48.260;8.928;2023-04-19T09:52:31;52426.56;;;-145.69;100.00
1726;BME280;41776;48.260;8.928;2023-04-19T09:54:59;52464.19;;;-145.69;100.00
1726;BME280;41776;48.260;8.928;2023-04-19T09:57:26;52446.38;;;-145.69;100.00
1726;BME280;41776;48.260;8.928;2023-04-19T09:59:53;52446.38;;;-145.69;100.00
1726;BME280;41776;48.260;8.928;2023-04-19T10:02:20;52460.22;;;-145.69;100.00
1726;BME280;41776;48.260;8.928;2023-04-19T10:04:47;52491.91;;;-145.69;100.00
1726;BME280;41776;48.260;8.928;2023-04-19T10:07:14;52460.22;;;-145.69;100.00
1726;BME280;41776;48.260;8.928;2023-04-19T10:09:40;52460.22;;;-145.69;100.00
1726;BME280;41776;48.260;8.928;2023-04-19T10:12:08;52472.13;;;-145.69;100.00
1726;BME280;41776;48.260;8.928;2023-04-19T10:14:35;52472.13;;;-145.69;100.00
1726;BME280;41776;48.260;8.928;2023-04-19T10:17:04;52470.13;;;-145.69;100.00
1726;BME280;41776;48.260;8.928;2023-04-19T10:19:34;52493.91;;;-145.69;100.00
1726;BME280;41776;48.260;8.928;2023-04-19T10:22:02;52462.22;;;-145.69;100.00
1726;BME280;41776;48.260;8.928;2023-04-19T10:24:32;52452.31;;;-145.69;100.00
1726;BME280;41776;48.260;8.928;2023-04-19T10:27:10;52470.13;;;-145.69;100.00
1726;BME280;41776;48.260;8.928;2023-04-19T10:29:57;52444.38;;;-145.69;100.00
1726;BME280;41776;48.260;8.928;2023-04-19T10:32:25;52466.16;;;-145.69;100.00
1726;BME280;41776;48.260;8.928;2023-04-19T10:34:52;52478.06;;;-145.69;100.00
1726;BME280;41776;48.260;8.928;2023-04-19T10:37:21;52468.16;;;-145.69;100.00
1726;BME280;41776;48.260;8.928;2023-04-19T10:39:49;52470.13;;;-145.69;100.00
1726;BME280;41776;48.260;8.928;2023-04-19T10:42:17;52468.16;;;-145.69;100.00
1726;BME280;41776;48.260;8.928;2023-04-19T10:47:43;52444.38;;;-145.69;100.00
1726;BME280;41776;48.260;8.928;2023-04-19T10:50:10;52470.13;;;-145.69;100.00
1726;BME280;41776;48.260;8.928;2023-04-19T10:52:36;52446.38;;;-145.69;100.00
1726;BME280;41776;48.260;8.928;2023-04-19T10:55:06;52464.19;;;-145.69;100.00
1726;BME280;41776;48.260;8.928;2023-04-19T10:58:01;52444.38;;;-145.69;100.00
1726;BME280;41776;48.260;8.928;2023-04-19T11:00:28;52470.13;;;-145.69;100.00
1726;BME280;41776;48.260;8.928;2023-04-19T11:02:56;52472.13;;;-145.69;100.00
1726;BME280;41776;48.260;8.928;2023-04-19T11:05:22;52476.06;;;-145.69;100.00
1726;BME280;41776;48.260;8.928;2023-04-19T11:07:49;52489.94;;;-145.69;100.00
1726;BME280;41776;48.260;8.928;2023-04-19T11:10:27;52489.94;;;-145.69;100.00
1726;BME280;41776;48.260;8.928;2023-04-19T11:12:53;52468.16;;;-145.69;100.00
1726;BME280;41776;48.260;8.928;2023-04-19T11:15:22;52448.34;;;-145.69;100.00
1726;BME280;41776;48.260;8.928;2023-04-19T11:17:49;52474.09;;;-145.69;100.00
1726;BME280;41776;48.260;8.928;2023-04-19T11:20:17;52491.91;;;-145.69;100.00
1726;BME280;41776;48.260;8.928;2023-04-19T11:22:48;52448.34;;;-145.69;100.00
1726;BME280;41776;48.260;8.928;2023-04-19T11:25:15;52440.44;;;-145.69;100.00
1726;BME280;41776;48.260;8.928;2023-04-19T11:27:44;52458.25;;;-145.69;100.00
1726;BME280;41776;48.260;8.928;2023-04-19T11:30:13;52446.38;;;-145.69;100.00
1726;BME280;41776;48.260;8.928;2023-04-19T11:32:46;52464.19;;;-145.69;100.00
1726;BME280;41776;48.260;8.928;2023-04-19T11:35:13;52432.50;;;-145.69;100.00
1726;BME280;41776;48.260;8.928;2023-04-19T11:37:39;52476.06;;;-145.69;100.00
1726;BME280;41776;48.260;8.928;2023-04-19T11:40:07;52422.59;;;-145.69;100.00
1726;BME280;41776;48.260;8.928;2023-04-19T11:42:34;52434.47;;;-145.69;94.28
1726;BME280;41776;48.260;8.928;2023-04-19T11:45:01;52446.38;;;-145.69;89.75
1726;BME280;41776;48.260;8.928;2023-04-19T11:47:28;52384.97;;;-145.69;85.24
1726;BME280;41776;48.260;8.928;2023-04-19T11:49:59;52412.69;;;-145.69;77.19
1726;BME280;41776;48.260;8.928;2023-04-19T11:52:48;52396.84;;;-145.69;74.44
1726;BME280;41776;48.260;8.928;2023-04-19T11:55:18;52404.78;;;-145.69;76.88
1726;BME280;41776;48.260;8.928;2023-04-19T11:57:46;52381.00;;;-145.69;72.26
1726;BME280;41776;48.260;8.928;2023-04-19T12:00:14;52426.56;;;-145.69;75.15
1726;BME280;41776;48.260;8.928;2023-04-19T12:02:42;52381.00;;;-145.69;84.25
1726;BME280;41776;48.260;8.928;2023-04-19T12:05:12;52448.34;;;-145.69;87.17
1726;BME280;41776;48.260;8.928;2023-04-19T12:08:00;52416.66;;;-145.69;86.25
1726;BME280;41776;48.260;8.928;2023-04-19T12:10:27;52432.50;;;-145.69;86.46
1726;BME280;41776;48.260;8.928;2023-04-19T12:12:53;52392.91;;;-145.69;80.82
1726;BME280;41776;48.260;8.928;2023-04-19T12:15:20;52394.88;;;-145.69;84.29
1726;BME280;41776;48.260;8.928;2023-04-19T12:17:57;52424.59;;;-145.69;77.67
1726;BME280;41776;48.260;8.928;2023-04-19T12:20:29;52440.44;;;-145.69;84.34
1726;BME280;41776;48.260;8.928;2023-04-19T12:22:56;52440.44;;;-145.69;89.98
1726;BME280;41776;48.260;8.928;2023-04-19T12:25:27;52420.63;;;-145.69;93.24
1726;BME280;41776;48.260;8.928;2023-04-19T12:27:53;52428.53;;;-145.69;94.44
1726;BME280;41776;48.260;8.928;2023-04-19T12:30:20;52448.34;;;-145.69;92.29
1726;BME280;41776;48.260;8.928;2023-04-19T12:32:46;52438.44;;;-145.69;94.92
1726;BME280;41776;48.260;8.928;2023-04-19T12:35:15;52440.44;;;-145.69;94.87
1726;BME280;41776;48.260;8.928;2023-04-19T12:37:43;52400.81;;;-145.69;95.32
1726;BME280;41776;48.260;8.928;2023-04-19T12:40:11;52416.66;;;-145.69;94.13
1726;BME280;41776;48.260;8.928;2023-04-19T12:42:38;52460.22;;;-145.69;93.57
1726;BME280;41776;48.260;8.928;2023-04-19T12:45:05;52480.03;;;-145.69;95.60